createdAt,value
2018-06-03T00:01:12.207Z,7.50
2018-06-03T00:03:39.667Z,13.10
2018-06-03T00:06:07.116Z,9.20
2018-06-03T00:08:34.565Z,9.53
2018-06-03T00:11:02.010Z,8.57
2018-06-03T00:13:29.462Z,10.63
2018-06-03T00:15:56.924Z,9.10
2018-06-03T00:18:25.148Z,8.87
2018-06-03T00:21:04.567Z,10.90
2018-06-03T00:23:32.016Z,12.03
2018-06-03T00:25:59.465Z,7.07
2018-06-03T00:28:26.912Z,9.97
2018-06-03T00:30:54.371Z,8.23
2018-06-03T00:33:21.819Z,7.70
2018-06-03T00:36:01.170Z,9.60
2018-06-03T00:38:28.650Z,10.37
2018-06-03T00:40:56.109Z,8.80
2018-06-03T00:43:23.563Z,10.03
2018-06-03T00:45:51.017Z,10.33
2018-06-03T00:48:18.477Z,9.97
2018-06-03T00:50:46.694Z,12.93
2018-06-03T00:53:14.900Z,8.60
2018-06-03T00:55:42.358Z,7.80
2018-06-03T00:58:09.807Z,13.23
2018-06-03T01:00:37.261Z,10.30
2018-06-03T01:03:05.470Z,9.07
2018-06-03T01:05:32.932Z,11.07
2018-06-03T01:08:00.369Z,9.13
2018-06-03T01:10:27.842Z,10.03
2018-06-03T01:12:55.302Z,10.07
2018-06-03T01:15:22.761Z,10.43
2018-06-03T01:17:50.197Z,7.60
2018-06-03T01:20:17.665Z,8.47
2018-06-03T01:22:45.126Z,9.33
2018-06-03T01:25:12.585Z,11.10
2018-06-03T01:27:40.029Z,10.60
2018-06-03T01:30:07.497Z,7.93
2018-06-03T01:32:34.955Z,6.87
2018-06-03T01:35:02.411Z,6.63
2018-06-03T01:37:29.859Z,6.23
2018-06-03T01:39:57.325Z,7.60
2018-06-03T01:42:24.963Z,8.70
2018-06-03T01:44:52.410Z,6.83
2018-06-03T01:47:20.615Z,6.73
2018-06-03T01:49:48.065Z,9.33
2018-06-03T01:52:15.530Z,9.10
2018-06-03T01:54:42.978Z,8.27
2018-06-03T01:57:10.466Z,6.93
2018-06-03T01:59:37.902Z,7.67
2018-06-03T02:02:05.361Z,6.43
2018-06-03T02:04:32.785Z,7.00
2018-06-03T02:07:00.237Z,7.87
2018-06-03T02:09:28.430Z,7.40
2018-06-03T02:11:55.875Z,6.30
2018-06-03T02:14:23.326Z,7.00
2018-06-03T02:16:51.538Z,8.17
2018-06-03T02:19:18.977Z,8.50
2018-06-03T02:21:46.430Z,8.37
2018-06-03T02:24:13.871Z,9.17
2018-06-03T02:26:42.079Z,9.33
2018-06-03T02:29:09.521Z,9.50
2018-06-03T02:31:36.979Z,9.43
2018-06-03T02:34:04.438Z,8.67
2018-06-03T02:36:31.898Z,7.30
2018-06-03T02:38:59.343Z,7.13
2018-06-03T02:41:26.805Z,10.07
2018-06-03T02:43:54.254Z,10.53
2018-06-03T02:46:21.702Z,10.33
2018-06-03T02:48:49.905Z,8.47
2018-06-03T02:51:17.349Z,7.93
2018-06-03T02:53:44.799Z,7.63
2018-06-03T02:56:12.254Z,7.20
2018-06-03T02:58:40.470Z,7.80
2018-06-03T03:01:07.911Z,7.37
2018-06-03T03:03:35.342Z,9.47
2018-06-03T03:06:02.806Z,8.50
2018-06-03T03:08:31.013Z,6.60
2018-06-03T03:10:58.455Z,7.43
2018-06-03T03:13:25.909Z,8.37
2018-06-03T03:15:53.360Z,9.53
2018-06-03T03:18:20.798Z,8.67
2018-06-03T03:20:49.014Z,7.33
2018-06-03T03:23:16.458Z,6.97
2018-06-03T03:25:43.915Z,7.03
2018-06-03T03:28:11.374Z,6.00
2018-06-03T03:30:38.810Z,6.10
2018-06-03T03:33:06.286Z,6.43
2018-06-03T03:35:33.754Z,6.30
2018-06-03T03:38:01.213Z,5.50
2018-06-03T03:40:28.649Z,6.03
2018-06-03T03:42:56.111Z,5.83
2018-06-03T03:45:23.586Z,5.83
2018-06-03T03:47:51.017Z,6.37
2018-06-03T03:50:18.466Z,5.80
2018-06-03T03:52:46.686Z,7.03
2018-06-03T03:55:14.126Z,7.27
2018-06-03T03:57:41.585Z,7.33
2018-06-03T04:00:09.022Z,6.47
2018-06-03T04:02:36.468Z,6.13
2018-06-03T04:05:04.671Z,6.20
2018-06-03T04:07:32.115Z,7.37
2018-06-03T04:09:59.598Z,6.23
2018-06-03T04:12:27.050Z,6.73
2018-06-03T04:15:23.701Z,7.30
2018-06-03T04:17:51.867Z,7.97
2018-06-03T04:20:20.030Z,6.50
2018-06-03T04:22:48.203Z,7.20
2018-06-03T04:25:16.368Z,7.63
2018-06-03T04:27:44.533Z,7.37
2018-06-03T04:30:12.686Z,7.07
2018-06-03T04:32:40.625Z,6.37
2018-06-03T04:35:08.765Z,6.90
2018-06-03T04:37:36.924Z,6.50
2018-06-03T04:40:05.070Z,6.13
2018-06-03T04:42:33.249Z,6.20
2018-06-03T04:45:01.157Z,7.00
2018-06-03T04:47:29.326Z,6.03
2018-06-03T04:49:57.514Z,6.17
2018-06-03T04:52:25.646Z,6.60
2018-06-03T04:54:53.564Z,6.30
2018-06-03T04:57:21.728Z,6.57
2018-06-03T04:59:49.881Z,5.77
2018-06-03T05:02:18.045Z,5.77
2018-06-03T05:04:46.207Z,6.03
2018-06-03T05:07:14.414Z,5.93
2018-06-03T05:09:42.564Z,6.07
2018-06-03T05:12:10.731Z,6.80
2018-06-03T05:14:38.644Z,7.00
2018-06-03T05:17:06.824Z,7.10
2018-06-03T05:19:34.972Z,6.30
2018-06-03T05:22:03.125Z,7.13
2018-06-03T05:24:31.281Z,7.13
2018-06-03T05:26:59.216Z,6.40
2018-06-03T05:29:27.358Z,6.70
2018-06-03T05:31:55.506Z,6.20
2018-06-03T05:34:23.688Z,6.17
2018-06-03T05:36:51.861Z,6.70
2018-06-03T05:39:20.041Z,6.57
2018-06-03T05:41:48.213Z,6.50
2018-06-03T05:44:16.402Z,6.50
2018-06-03T05:46:44.577Z,6.53
2018-06-03T05:49:12.736Z,6.03
2018-06-03T05:51:40.934Z,6.73
2018-06-03T05:54:09.104Z,6.33
2018-06-03T05:56:37.257Z,6.70
2018-06-03T05:59:05.431Z,6.47
2018-06-03T06:01:33.589Z,5.60
2018-06-03T06:04:01.521Z,6.47
2018-06-03T06:06:29.712Z,6.23
2018-06-03T06:08:57.970Z,5.50
2018-06-03T06:11:26.097Z,5.87
2018-06-03T06:13:54.286Z,5.10
2018-06-03T06:16:22.439Z,5.50
2018-06-03T06:18:50.368Z,5.77
2018-06-03T06:21:18.582Z,4.97
2018-06-03T06:23:46.761Z,5.10
2018-06-03T06:26:14.929Z,5.50
2018-06-03T06:28:42.868Z,5.10
2018-06-03T06:31:11.045Z,5.13
2018-06-03T06:33:39.225Z,5.13
2018-06-03T06:36:07.392Z,5.00
2018-06-03T06:38:35.568Z,5.33
2018-06-03T06:41:03.739Z,5.30
2018-06-03T06:43:31.920Z,4.97
2018-06-03T06:46:00.083Z,5.40
2018-06-03T06:48:28.255Z,4.73
2018-06-03T06:50:56.430Z,5.27
2018-06-03T06:53:24.629Z,4.53
2018-06-03T06:55:52.811Z,5.50
2018-06-03T06:58:21.019Z,6.87
2018-06-03T07:00:49.185Z,11.60
2018-06-03T07:03:17.380Z,7.83
2018-06-03T07:05:45.535Z,6.43
2018-06-03T07:08:13.710Z,6.27
2018-06-03T07:10:41.876Z,6.57
2018-06-03T07:13:10.064Z,6.30
2018-06-03T07:15:38.209Z,5.67
2018-06-03T07:18:06.396Z,5.03
2018-06-03T07:20:34.542Z,5.10
2018-06-03T07:23:02.706Z,5.50
2018-06-03T07:25:30.892Z,3.90
2018-06-03T07:27:59.057Z,5.27
2018-06-03T07:30:27.226Z,4.57
2018-06-03T07:32:55.422Z,7.83
2018-06-03T07:35:23.369Z,10.50
2018-06-03T07:37:51.548Z,7.03
2018-06-03T07:40:19.728Z,5.17
2018-06-03T07:42:47.893Z,4.30
2018-06-03T07:45:16.057Z,3.80
2018-06-03T07:47:44.226Z,8.07
2018-06-03T07:50:12.417Z,9.77
2018-06-03T07:52:40.588Z,4.83
2018-06-03T07:55:08.769Z,4.40
2018-06-03T07:57:36.920Z,4.50
2018-06-03T08:00:05.107Z,4.90
2018-06-03T08:02:33.267Z,4.63
2018-06-03T08:05:01.454Z,4.90
2018-06-03T08:07:29.638Z,4.00
2018-06-03T08:09:57.821Z,3.50
2018-06-03T08:12:25.744Z,7.50
2018-06-03T08:14:53.933Z,4.47
2018-06-03T08:17:22.103Z,5.50
2018-06-03T08:19:50.275Z,5.30
2018-06-03T08:22:18.462Z,4.77
2018-06-03T08:24:46.633Z,4.33
2018-06-03T08:27:14.799Z,4.53
2018-06-03T08:29:42.970Z,3.70
2018-06-03T08:32:11.122Z,3.23
2018-06-03T08:34:39.315Z,3.40
2018-06-03T08:37:07.489Z,3.40
2018-06-03T08:39:35.662Z,3.60
2018-06-03T08:42:03.822Z,3.30
2018-06-03T08:44:32.010Z,3.30
2018-06-03T08:47:00.186Z,3.57
2018-06-03T08:49:28.357Z,3.90
2018-06-03T08:51:56.530Z,3.90
2018-06-03T08:54:24.705Z,3.90
2018-06-03T08:56:52.890Z,5.20
2018-06-03T08:59:21.066Z,2.80
2018-06-03T09:01:49.227Z,3.30
2018-06-03T09:04:17.413Z,3.10
2018-06-03T09:06:45.573Z,3.07
2018-06-03T09:09:13.761Z,3.00
2018-06-03T09:11:41.920Z,3.70
2018-06-03T09:14:10.096Z,3.77
2018-06-03T09:16:38.283Z,2.97
2018-06-03T09:19:06.454Z,3.00
2018-06-03T09:21:34.630Z,3.80
2018-06-03T09:24:02.788Z,3.30
2018-06-03T09:26:30.945Z,2.47
2018-06-03T09:28:59.150Z,3.43
2018-06-03T09:31:27.719Z,4.20
2018-06-03T09:33:55.874Z,3.20
2018-06-03T09:36:24.032Z,2.90
2018-06-03T09:38:52.190Z,3.10
2018-06-03T09:41:20.134Z,3.50
2018-06-03T09:43:48.313Z,3.03
2018-06-03T09:46:16.482Z,3.13
2018-06-03T09:48:44.638Z,2.77
2018-06-03T09:51:12.838Z,3.20
2018-06-03T09:53:41.005Z,2.57
2018-06-03T09:56:09.171Z,2.43
2018-06-03T09:58:37.341Z,3.13
2018-06-03T10:01:05.506Z,2.33
2018-06-03T10:03:33.669Z,3.50
2018-06-03T10:06:01.829Z,3.30
2018-06-03T10:08:29.973Z,2.80
2018-06-03T10:10:57.904Z,3.03
2018-06-03T10:13:26.092Z,3.80
2018-06-03T10:15:54.254Z,4.60
2018-06-03T10:18:22.441Z,4.17
2018-06-03T10:20:50.601Z,2.53
2018-06-03T10:23:18.755Z,3.63
2018-06-03T10:25:46.939Z,3.00
2018-06-03T10:28:15.119Z,3.50
2018-06-03T10:30:43.286Z,2.57
2018-06-03T10:33:11.498Z,3.10
2018-06-03T10:35:39.684Z,3.00
2018-06-03T10:38:07.609Z,2.80
2018-06-03T10:40:35.812Z,2.80
2018-06-03T10:43:03.990Z,2.60
2018-06-03T10:45:32.159Z,2.70
2018-06-03T10:48:00.338Z,3.00
2018-06-03T10:50:28.515Z,2.60
2018-06-03T10:52:56.682Z,2.90
2018-06-03T10:55:24.858Z,2.70
2018-06-03T10:57:52.997Z,3.10
2018-06-03T11:00:21.204Z,2.60
2018-06-03T11:02:49.361Z,2.27
2018-06-03T11:05:17.522Z,2.73
2018-06-03T11:07:45.683Z,2.90
2018-06-03T11:10:13.850Z,2.90
2018-06-03T11:12:42.007Z,2.67
2018-06-03T11:15:10.165Z,2.77
2018-06-03T11:17:38.084Z,2.43
2018-06-03T11:20:06.418Z,2.60
2018-06-03T11:22:34.587Z,2.60
2018-06-03T11:25:02.746Z,2.80
2018-06-03T11:27:30.935Z,3.10
2018-06-03T11:29:59.078Z,3.00
2018-06-03T11:32:27.259Z,2.97
2018-06-03T11:34:55.424Z,3.00
2018-06-03T11:37:23.589Z,2.80
2018-06-03T11:39:51.765Z,2.67
2018-06-03T11:42:19.950Z,3.00
2018-06-03T11:44:48.114Z,2.73
2018-06-03T11:47:16.297Z,2.87
2018-06-03T11:49:44.444Z,2.50
2018-06-03T11:52:12.617Z,2.50
2018-06-03T11:54:40.783Z,2.70
2018-06-03T11:57:08.958Z,2.43
2018-06-03T11:59:41.881Z,2.50
2018-06-03T12:02:10.482Z,2.37
2018-06-03T12:04:38.419Z,2.43
2018-06-03T12:07:06.578Z,2.53
2018-06-03T12:09:34.737Z,2.90
2018-06-03T12:12:02.903Z,3.03
2018-06-03T12:14:31.075Z,2.73
2018-06-03T12:16:59.254Z,2.40
2018-06-03T12:19:27.462Z,2.60
2018-06-03T12:21:55.618Z,2.60
2018-06-03T12:24:23.781Z,2.50
2018-06-03T12:26:51.952Z,2.90
2018-06-03T12:29:20.118Z,2.80
2018-06-03T12:31:48.308Z,2.83
2018-06-03T12:34:16.472Z,2.53
2018-06-03T12:36:44.609Z,2.90
2018-06-03T12:39:12.771Z,2.73
2018-06-03T12:41:40.941Z,2.90
2018-06-03T12:44:09.098Z,3.10
2018-06-03T12:46:37.287Z,2.90
2018-06-03T12:49:05.441Z,2.40
2018-06-03T12:51:33.630Z,2.50
2018-06-03T12:54:01.786Z,2.73
2018-06-03T12:56:29.954Z,2.67
2018-06-03T12:58:58.114Z,3.00
2018-06-03T13:01:26.286Z,3.40
2018-06-03T13:03:54.435Z,2.53
2018-06-03T13:06:22.649Z,2.60
2018-06-03T13:08:50.749Z,2.50
2018-06-03T13:11:18.926Z,2.80
2018-06-03T13:13:47.090Z,2.47
2018-06-03T13:16:15.253Z,2.50
2018-06-03T13:18:43.398Z,2.20
2018-06-03T13:21:11.531Z,2.63
2018-06-03T13:23:39.483Z,3.00
2018-06-03T13:26:07.634Z,2.50
2018-06-03T13:28:35.790Z,2.60
2018-06-03T13:31:03.952Z,2.87
2018-06-03T13:33:32.143Z,2.53
2018-06-03T13:36:00.309Z,2.33
2018-06-03T13:38:28.529Z,2.40
2018-06-03T13:40:56.646Z,2.40
2018-06-03T13:43:24.789Z,2.10
2018-06-03T13:45:52.953Z,2.13
2018-06-03T13:48:21.122Z,2.80
2018-06-03T13:50:49.263Z,2.67
2018-06-03T13:53:17.436Z,2.60
2018-06-03T13:55:45.623Z,2.27
2018-06-03T13:58:13.795Z,2.03
2018-06-03T14:00:41.965Z,2.43
2018-06-03T14:03:10.155Z,2.40
2018-06-03T14:05:38.330Z,2.60
2018-06-03T14:08:06.502Z,3.70
2018-06-03T14:10:34.661Z,2.37
2018-06-03T14:13:02.833Z,2.67
2018-06-03T14:15:30.992Z,2.47
2018-06-03T14:17:59.157Z,2.30
2018-06-03T14:20:27.326Z,2.60
2018-06-03T14:22:55.518Z,2.30
2018-06-03T14:25:23.697Z,12.37
2018-06-03T14:27:51.862Z,4.50
2018-06-03T14:30:20.018Z,3.40
2018-06-03T14:32:48.201Z,2.80
2018-06-03T14:35:16.368Z,7.90
2018-06-03T14:37:44.574Z,5.50
2018-06-03T14:40:12.746Z,2.73
2018-06-03T14:42:40.908Z,2.30
2018-06-03T14:45:09.058Z,2.30
2018-06-03T14:47:37.254Z,2.20
2018-06-03T14:50:05.405Z,2.10
2018-06-03T14:52:33.602Z,2.60
2018-06-03T14:55:01.741Z,2.30
2018-06-03T14:57:29.676Z,2.47
2018-06-03T14:59:57.777Z,2.37
2018-06-03T15:02:25.954Z,2.40
2018-06-03T15:04:54.112Z,2.37
2018-06-03T15:07:22.282Z,2.47
2018-06-03T15:09:50.462Z,2.27
2018-06-03T15:12:18.646Z,3.00
2018-06-03T15:14:46.816Z,2.27
2018-06-03T15:17:14.989Z,2.80
2018-06-03T15:19:43.183Z,2.90
2018-06-03T15:22:11.350Z,2.20
2018-06-03T15:24:39.528Z,2.50
2018-06-03T15:27:07.692Z,2.47
2018-06-03T15:29:35.632Z,2.83
2018-06-03T15:32:03.801Z,1.90
2018-06-03T15:34:32.413Z,2.93
2018-06-03T15:37:00.561Z,2.57
2018-06-03T15:39:28.730Z,2.87
2018-06-03T15:41:56.889Z,2.50
2018-06-03T15:44:25.061Z,3.07
2018-06-03T15:46:53.236Z,2.00
2018-06-03T15:49:21.401Z,2.20
2018-06-03T15:51:49.570Z,2.57
2018-06-03T15:54:17.744Z,2.23
2018-06-03T15:56:45.890Z,2.00
2018-06-03T15:59:14.049Z,2.53
2018-06-03T16:01:42.214Z,2.17
2018-06-03T16:04:10.369Z,2.70
2018-06-03T16:06:38.545Z,2.97
2018-06-03T16:09:07.255Z,2.00
2018-06-03T16:11:35.421Z,2.73
2018-06-03T16:14:03.577Z,2.50
2018-06-03T16:16:31.729Z,2.00
2018-06-03T16:18:59.943Z,2.23
2018-06-03T16:21:28.068Z,1.93
2018-06-03T16:23:56.225Z,1.70
2018-06-03T16:26:24.401Z,2.03
2018-06-03T16:28:52.559Z,1.90
2018-06-03T16:31:20.742Z,1.80
2018-06-03T16:33:48.867Z,2.90
2018-06-03T16:36:17.042Z,1.67
2018-06-03T16:38:45.213Z,1.83
2018-06-03T16:41:13.370Z,1.70
2018-06-03T16:43:41.530Z,1.83
2018-06-03T16:46:09.685Z,1.50
2018-06-03T16:48:37.663Z,1.67
2018-06-03T16:51:05.759Z,2.80
2018-06-03T16:53:33.935Z,1.80
2018-06-03T16:56:02.100Z,1.77
2018-06-03T16:58:30.261Z,1.67
2018-06-03T17:00:58.417Z,2.07
2018-06-03T17:03:26.337Z,1.60
2018-06-03T17:05:54.487Z,1.87
2018-06-03T17:08:22.688Z,2.00
2018-06-03T17:10:50.837Z,2.03
2018-06-03T17:13:19.044Z,1.57
2018-06-03T17:15:47.163Z,1.87
2018-06-03T17:18:15.086Z,1.83
2018-06-03T17:20:43.254Z,1.53
2018-06-03T17:23:11.427Z,1.93
2018-06-03T17:25:39.595Z,1.80
2018-06-03T17:28:07.746Z,2.30
2018-06-03T17:30:35.904Z,2.20
2018-06-03T17:33:04.071Z,1.77
2018-06-03T17:35:32.001Z,1.70
2018-06-03T17:38:00.167Z,2.13
2018-06-03T17:40:28.376Z,2.57
2018-06-03T17:42:56.494Z,1.90
2018-06-03T17:45:24.654Z,1.80
2018-06-03T17:47:52.805Z,2.03
2018-06-03T17:50:20.980Z,2.30
2018-06-03T17:52:49.137Z,1.70
2018-06-03T17:55:17.312Z,1.70
2018-06-03T17:57:45.456Z,1.93
2018-06-03T18:00:13.621Z,2.23
2018-06-03T18:02:41.772Z,1.90
2018-06-03T18:05:09.910Z,1.80
2018-06-03T18:07:38.058Z,2.07
2018-06-03T18:10:06.242Z,2.17
2018-06-03T18:12:34.406Z,2.70
2018-06-03T18:15:02.565Z,3.00
2018-06-03T18:17:30.701Z,2.10
2018-06-03T18:19:58.867Z,3.57
2018-06-03T18:22:27.027Z,3.40
2018-06-03T18:24:55.179Z,6.70
2018-06-03T18:27:23.337Z,9.43
2018-06-03T18:29:51.518Z,2.07
2018-06-03T18:32:19.669Z,34.67
2018-06-03T18:34:47.823Z,31.17
2018-06-03T18:37:15.982Z,4.17
2018-06-03T18:39:44.150Z,3.10
2018-06-03T18:42:12.061Z,2.57
2018-06-03T18:44:40.225Z,2.97
2018-06-03T18:47:08.387Z,3.40
2018-06-03T18:49:36.556Z,2.20
2018-06-03T18:52:04.722Z,1.87
2018-06-03T18:54:32.878Z,3.47
2018-06-03T18:57:00.782Z,4.73
2018-06-03T18:59:28.960Z,1.63
2018-06-03T19:01:57.101Z,1.73
2018-06-03T19:04:25.021Z,2.13
2018-06-03T19:06:53.190Z,2.57
2018-06-03T19:09:21.342Z,5.70
2018-06-03T19:11:49.514Z,2.40
2018-06-03T19:14:17.669Z,2.73
2018-06-03T19:16:45.830Z,5.03
2018-06-03T19:19:13.968Z,2.10
2018-06-03T19:21:42.144Z,1.93
2018-06-03T19:24:10.314Z,1.90
2018-06-03T19:26:38.461Z,1.90
2018-06-03T19:29:06.622Z,2.00
2018-06-03T19:31:34.774Z,2.53
2018-06-03T19:34:02.686Z,5.47
2018-06-03T19:36:30.857Z,1.87
2018-06-03T19:38:58.996Z,1.80
2018-06-03T19:41:26.917Z,2.10
2018-06-03T19:43:55.049Z,2.30
2018-06-03T19:46:23.196Z,2.17
2018-06-03T19:48:51.328Z,2.20
2018-06-03T19:51:19.473Z,2.20
2018-06-03T19:53:47.621Z,1.90
2018-06-03T19:56:15.804Z,1.93
2018-06-03T19:58:43.709Z,2.37
2018-06-03T20:01:11.875Z,3.17
2018-06-03T20:03:40.068Z,2.03
2018-06-03T20:06:08.177Z,3.40
2018-06-03T20:08:36.326Z,2.33
2018-06-03T20:11:04.482Z,2.40
2018-06-03T20:13:32.629Z,2.93
2018-06-03T20:16:00.782Z,2.90
2018-06-03T20:18:28.684Z,2.67
2018-06-03T20:20:56.842Z,5.47
2018-06-03T20:23:24.982Z,2.50
2018-06-03T20:25:53.148Z,2.80
2018-06-03T20:28:21.291Z,3.27
2018-06-03T20:30:49.464Z,3.80
2018-06-03T20:33:17.592Z,3.40
2018-06-03T20:35:45.513Z,4.00
2018-06-03T20:38:13.666Z,3.77
2018-06-03T20:40:41.841Z,5.17
2018-06-03T20:43:10.037Z,5.20
2018-06-03T20:45:38.169Z,17.10
2018-06-03T20:48:06.347Z,5.43
2018-06-03T20:50:34.502Z,4.97
2018-06-03T20:53:02.421Z,3.90
2018-06-03T20:55:30.573Z,3.03
2018-06-03T20:57:58.726Z,3.80
2018-06-03T21:00:26.624Z,3.20
2018-06-03T21:02:54.773Z,3.67
2018-06-03T21:05:22.917Z,3.43
2018-06-03T21:07:51.080Z,3.67
2018-06-03T21:10:19.246Z,4.17
2018-06-03T21:12:47.418Z,4.30
2018-06-03T21:15:15.569Z,3.60
2018-06-03T21:17:43.733Z,4.00
2018-06-03T21:20:11.869Z,3.40
2018-06-03T21:22:40.021Z,3.73
2018-06-03T21:25:08.169Z,3.60
2018-06-03T21:27:36.329Z,3.13
2018-06-03T21:30:04.819Z,3.83
2018-06-03T21:32:32.974Z,3.50
2018-06-03T21:35:01.113Z,4.83
2018-06-03T21:37:29.265Z,3.53
2018-06-03T21:39:57.417Z,3.10
2018-06-03T21:42:25.560Z,3.67
2018-06-03T21:44:53.706Z,3.50
2018-06-03T21:47:21.858Z,3.50
2018-06-03T21:49:50.002Z,4.60
2018-06-03T21:52:18.298Z,3.57
2018-06-03T21:54:46.454Z,3.63
2018-06-03T21:57:14.606Z,3.53
2018-06-03T21:59:42.757Z,3.37
2018-06-03T22:02:10.914Z,4.27
2018-06-03T22:04:39.075Z,3.53
2018-06-03T22:07:07.221Z,4.13
2018-06-03T22:09:35.361Z,4.13
2018-06-03T22:12:03.525Z,4.17
2018-06-03T22:14:31.437Z,4.10
2018-06-03T22:16:59.598Z,3.83
2018-06-03T22:19:27.736Z,3.93
2018-06-03T22:21:55.888Z,4.07
2018-06-03T22:24:24.030Z,4.03
2018-06-03T22:26:52.172Z,4.50
2018-06-03T22:29:20.314Z,4.10
2018-06-03T22:31:48.472Z,4.20
2018-06-03T22:34:16.601Z,4.37
2018-06-03T22:36:44.784Z,4.50
2018-06-03T22:39:12.916Z,4.30
2018-06-03T22:41:41.057Z,5.53
2018-06-03T22:44:09.236Z,4.40
2018-06-03T22:46:37.349Z,5.30
2018-06-03T22:49:05.265Z,4.80
2018-06-03T22:54:08.009Z,4.50
2018-06-03T22:56:47.442Z,4.03
2018-06-03T22:59:15.597Z,4.43
2018-06-03T23:01:43.737Z,3.80
2018-06-03T23:04:11.890Z,4.10
2018-06-03T23:06:40.050Z,4.10
2018-06-03T23:09:07.991Z,3.80
2018-06-03T23:11:36.139Z,3.30
2018-06-03T23:14:04.312Z,3.57
2018-06-03T23:16:32.448Z,4.30
2018-06-03T23:19:00.593Z,3.83
2018-06-03T23:21:28.753Z,3.93
2018-06-03T23:23:56.919Z,3.70
2018-06-03T23:26:25.081Z,3.97
2018-06-03T23:28:53.245Z,4.13
2018-06-03T23:31:21.397Z,4.40
2018-06-03T23:33:49.562Z,5.17
2018-06-03T23:36:17.494Z,4.60
2018-06-03T23:38:45.656Z,4.50
2018-06-03T23:41:13.845Z,3.97
2018-06-03T23:43:42.017Z,4.10
2018-06-03T23:46:10.176Z,3.83
2018-06-03T23:48:38.347Z,5.13
2018-06-03T23:51:06.518Z,4.97
2018-06-03T23:53:34.678Z,4.30
2018-06-03T23:56:02.833Z,4.63
2018-06-03T23:58:30.990Z,4.90
